createdAt,value
2023-01-23T00:02:09.512Z,49.45
2023-01-23T00:04:36.299Z,46.90
2023-01-23T00:07:03.518Z,44.13
2023-01-23T00:09:30.309Z,46.47
2023-01-23T00:11:57.393Z,45.50
2023-01-23T00:14:24.175Z,44.38
2023-01-23T00:16:50.834Z,43.50
2023-01-23T00:19:17.864Z,49.75
2023-01-23T00:21:44.627Z,51.03
2023-01-23T00:24:12.072Z,46.33
2023-01-23T00:26:38.759Z,47.40
2023-01-23T00:29:05.621Z,48.00
2023-01-23T00:31:35.741Z,51.58
2023-01-23T00:34:06.052Z,57.55
2023-01-23T00:36:35.596Z,43.53
2023-01-23T00:39:04.616Z,52.83
2023-01-23T00:41:31.290Z,49.88
2023-01-23T00:43:57.985Z,46.80
2023-01-23T00:46:24.862Z,44.47
2023-01-23T00:48:52.199Z,52.50
2023-01-23T00:51:19.047Z,52.03
2023-01-23T00:53:46.119Z,55.58
2023-01-23T00:56:13.070Z,54.85
2023-01-23T00:58:42.840Z,55.30
2023-01-23T01:01:12.245Z,50.58
2023-01-23T01:03:39.065Z,62.55
2023-01-23T01:06:06.193Z,51.65
2023-01-23T01:08:33.168Z,48.67
2023-01-23T01:10:59.869Z,56.50
2023-01-23T01:13:27.002Z,55.92
2023-01-23T01:15:54.340Z,56.17
2023-01-23T01:18:22.205Z,57.42
2023-01-23T01:20:49.771Z,55.90
2023-01-23T01:23:16.675Z,58.92
2023-01-23T01:25:43.425Z,54.47
2023-01-23T01:28:10.232Z,53.63
2023-01-23T01:30:37.119Z,56.53
2023-01-23T01:33:04.513Z,54.88
2023-01-23T01:35:31.436Z,58.92
2023-01-23T01:37:58.248Z,62.50
2023-01-23T01:40:29.061Z,57.28
2023-01-23T01:43:04.681Z,58.28
2023-01-23T01:45:56.355Z,60.05
2023-01-23T01:48:26.667Z,58.92
2023-01-23T01:50:54.053Z,51.50
2023-01-23T01:53:25.448Z,55.42
2023-01-23T01:55:52.452Z,54.88
2023-01-23T01:58:19.861Z,59.33
2023-01-23T02:00:46.593Z,57.63
2023-01-23T02:03:13.489Z,60.30
2023-01-23T02:05:45.029Z,55.33
2023-01-23T02:08:20.747Z,52.72
2023-01-23T02:10:47.713Z,56.28
2023-01-23T02:13:39.947Z,51.78
2023-01-23T02:16:21.456Z,49.95
2023-01-23T02:18:53.788Z,54.63
2023-01-23T02:21:25.155Z,54.13
2023-01-23T02:24:20.420Z,51.38
2023-01-23T02:26:47.537Z,56.17
2023-01-23T02:29:15.334Z,56.67
2023-01-23T02:31:46.045Z,48.90
2023-01-23T02:34:14.188Z,50.53
2023-01-23T02:36:44.850Z,55.45
2023-01-23T02:39:16.915Z,50.78
2023-01-23T02:41:46.183Z,52.22
2023-01-23T02:44:18.526Z,52.83
2023-01-23T02:46:45.230Z,50.10
2023-01-23T02:49:12.510Z,42.90
2023-01-23T02:51:39.234Z,50.80
2023-01-23T02:54:06.017Z,48.03
2023-01-23T02:56:33.957Z,44.03
2023-01-23T02:59:19.149Z,48.90
2023-01-23T03:01:46.099Z,48.92
2023-01-23T03:04:12.822Z,47.83
2023-01-23T03:06:39.480Z,44.17
2023-01-23T03:09:15.774Z,42.67
2023-01-23T03:11:44.755Z,43.90
2023-01-23T03:14:17.562Z,44.67
2023-01-23T03:16:49.911Z,45.17
2023-01-23T03:19:23.062Z,46.65
2023-01-23T03:21:51.068Z,45.67
2023-01-23T03:24:19.340Z,44.58
2023-01-23T03:26:47.578Z,43.97
2023-01-23T03:29:38.833Z,45.63
2023-01-23T03:32:06.332Z,40.42
2023-01-23T03:34:33.290Z,39.90
2023-01-23T03:37:01.295Z,43.00
2023-01-23T03:39:46.533Z,46.80
2023-01-23T03:42:13.372Z,41.67
2023-01-23T03:44:40.235Z,45.03
2023-01-23T03:47:07.545Z,42.78
2023-01-23T03:49:34.249Z,47.88
2023-01-23T03:52:00.927Z,43.22
2023-01-23T03:54:27.778Z,46.78
2023-01-23T03:56:54.698Z,43.55
2023-01-23T03:59:21.370Z,45.10
2023-01-23T04:01:48.208Z,43.50
2023-01-23T04:04:15.293Z,43.60
2023-01-23T04:06:42.126Z,43.33
2023-01-23T04:09:08.761Z,43.30
2023-01-23T04:11:35.485Z,46.53
2023-01-23T04:14:02.238Z,41.35
2023-01-23T04:16:29.024Z,40.03
2023-01-23T04:18:55.982Z,44.58
2023-01-23T04:21:22.947Z,43.88
2023-01-23T04:23:49.854Z,46.55
2023-01-23T04:26:16.654Z,45.80
2023-01-23T04:28:43.332Z,38.50
2023-01-23T04:31:10.218Z,46.05
2023-01-23T04:33:36.930Z,49.53
2023-01-23T04:36:06.218Z,45.13
2023-01-23T04:38:33.538Z,46.03
2023-01-23T04:41:00.664Z,44.88
2023-01-23T04:43:27.382Z,46.15
2023-01-23T04:45:54.902Z,45.17
2023-01-23T04:48:22.303Z,47.53
2023-01-23T04:50:49.933Z,44.38
2023-01-23T04:53:17.054Z,45.80
2023-01-23T04:55:46.247Z,43.85
2023-01-23T04:58:12.948Z,46.25
2023-01-23T05:00:39.654Z,45.30
2023-01-23T05:03:06.423Z,45.35
2023-01-23T05:05:33.426Z,46.78
2023-01-23T05:08:00.112Z,46.85
2023-01-23T05:10:27.035Z,46.05
2023-01-23T05:12:53.877Z,44.25
2023-01-23T05:15:21.260Z,46.10
2023-01-23T05:17:49.991Z,46.25
2023-01-23T05:20:17.018Z,51.90
2023-01-23T05:22:52.268Z,46.17
2023-01-23T05:25:29.175Z,44.70
2023-01-23T05:27:55.876Z,43.85
2023-01-23T05:30:23.403Z,47.17
2023-01-23T05:32:50.314Z,42.63
2023-01-23T05:35:17.460Z,45.05
2023-01-23T05:37:47.828Z,46.00
2023-01-23T05:40:14.477Z,46.10
2023-01-23T05:42:41.199Z,42.10
2023-01-23T05:45:08.132Z,44.85
2023-01-23T05:47:35.172Z,46.50
2023-01-23T05:50:01.959Z,49.38
2023-01-23T05:52:28.716Z,43.60
2023-01-23T05:54:55.360Z,46.80
2023-01-23T05:57:22.794Z,45.42
2023-01-23T05:59:49.504Z,43.42
2023-01-23T06:02:16.295Z,44.30
2023-01-23T06:04:43.069Z,52.00
2023-01-23T06:07:18.501Z,46.80
2023-01-23T06:09:45.902Z,46.58
2023-01-23T06:12:12.863Z,42.25
2023-01-23T06:14:39.685Z,47.75
2023-01-23T06:17:06.840Z,49.78
2023-01-23T06:19:33.712Z,48.00
2023-01-23T06:22:00.414Z,57.42
2023-01-23T06:24:27.137Z,80.88
2023-01-23T06:26:53.779Z,56.50
2023-01-23T06:29:20.604Z,49.75
2023-01-23T06:31:47.691Z,49.38
2023-01-23T06:34:15.358Z,48.00
2023-01-23T06:36:42.472Z,50.15
2023-01-23T06:39:13.104Z,52.78
2023-01-23T06:41:39.913Z,50.60
2023-01-23T06:44:07.756Z,53.92
2023-01-23T06:46:34.641Z,47.97
2023-01-23T06:49:04.498Z,54.65
2023-01-23T06:51:33.611Z,48.63
2023-01-23T06:54:00.394Z,48.83
2023-01-23T06:56:27.452Z,47.92
2023-01-23T06:58:54.277Z,54.53
2023-01-23T07:01:21.514Z,48.30
2023-01-23T07:03:48.399Z,50.85
2023-01-23T07:06:15.721Z,48.88
2023-01-23T07:08:42.818Z,48.95
2023-01-23T07:11:10.227Z,48.97
2023-01-23T07:13:37.035Z,57.70
2023-01-23T07:16:04.449Z,71.47
2023-01-23T07:18:32.555Z,69.47
2023-01-23T07:20:59.557Z,56.78
2023-01-23T07:23:26.289Z,52.25
2023-01-23T07:25:59.245Z,51.80
2023-01-23T07:28:25.988Z,52.30
2023-01-23T07:30:52.741Z,53.50
2023-01-23T07:33:19.544Z,52.30
2023-01-23T07:35:46.343Z,48.75
2023-01-23T07:38:12.970Z,51.25
2023-01-23T07:40:42.486Z,55.60
2023-01-23T07:43:09.792Z,48.90
2023-01-23T07:45:37.688Z,52.28
2023-01-23T07:48:04.829Z,55.10
2023-01-23T07:50:31.524Z,49.90
2023-01-23T07:52:58.205Z,48.85
2023-01-23T07:55:25.015Z,47.72
2023-01-23T07:57:51.684Z,47.75
2023-01-23T08:00:18.897Z,47.42
2023-01-23T08:02:45.798Z,48.17
2023-01-23T08:05:12.482Z,47.40
2023-01-23T08:07:39.430Z,46.78
2023-01-23T08:10:07.386Z,47.13
2023-01-23T08:12:34.647Z,46.35
2023-01-23T08:15:01.694Z,45.35
2023-01-23T08:17:28.506Z,44.67
2023-01-23T08:19:55.196Z,54.35
2023-01-23T08:22:21.906Z,68.07
2023-01-23T08:24:48.793Z,50.75
2023-01-23T08:27:15.448Z,46.35
2023-01-23T08:29:42.150Z,47.70
2023-01-23T08:32:08.943Z,43.90
2023-01-23T08:34:35.841Z,41.78
2023-01-23T08:37:02.498Z,41.95
2023-01-23T08:39:29.259Z,45.28
2023-01-23T08:41:55.985Z,45.50
2023-01-23T08:44:24.019Z,41.88
2023-01-23T08:46:50.727Z,45.10
2023-01-23T08:49:20.179Z,45.92
2023-01-23T08:51:47.122Z,44.03
2023-01-23T08:54:13.912Z,43.83
2023-01-23T08:56:41.325Z,47.88
2023-01-23T08:59:08.879Z,42.17
2023-01-23T09:01:35.676Z,44.78
2023-01-23T09:04:02.363Z,40.55
2023-01-23T09:06:29.109Z,39.42
2023-01-23T09:08:56.621Z,39.55
2023-01-23T09:11:23.825Z,38.80
2023-01-23T09:13:53.802Z,39.10
2023-01-23T09:16:20.815Z,37.10
2023-01-23T09:18:47.604Z,35.60
2023-01-23T09:21:16.779Z,34.58
2023-01-23T09:23:43.771Z,35.35
2023-01-23T09:26:13.240Z,36.67
2023-01-23T09:28:42.454Z,34.10
2023-01-23T09:31:11.883Z,35.90
2023-01-23T09:33:38.902Z,53.58
2023-01-23T09:36:05.970Z,43.08
2023-01-23T09:38:34.267Z,34.53
2023-01-23T09:41:19.017Z,35.53
2023-01-23T09:44:07.726Z,40.47
2023-01-23T09:47:02.236Z,43.08
2023-01-23T09:49:37.271Z,38.72
2023-01-23T09:52:27.449Z,38.67
2023-01-23T09:55:02.150Z,38.67
2023-01-23T09:57:35.537Z,37.78
2023-01-23T10:00:11.556Z,36.95
2023-01-23T10:02:38.527Z,38.30
2023-01-23T10:05:12.794Z,38.55
2023-01-23T10:08:07.405Z,36.15
2023-01-23T10:10:59.241Z,36.38
2023-01-23T10:14:04.342Z,36.70
2023-01-23T10:19:20.317Z,36.97
2023-01-23T10:22:23.023Z,36.03
2023-01-23T10:24:53.364Z,37.85
2023-01-23T10:27:22.833Z,35.33
2023-01-23T10:30:00.685Z,36.97
2023-01-23T10:32:29.902Z,38.17
2023-01-23T10:35:47.201Z,39.10
2023-01-23T10:38:47.927Z,38.13
2023-01-23T10:41:23.474Z,36.13
2023-01-23T10:43:52.931Z,35.15
2023-01-23T10:46:41.407Z,31.02
2023-01-23T10:49:08.056Z,33.13
2023-01-23T10:51:37.600Z,34.72
2023-01-23T10:54:30.912Z,29.88
2023-01-23T10:57:29.918Z,32.20
2023-01-23T11:00:04.271Z,32.50
2023-01-23T11:02:34.195Z,33.83
2023-01-23T11:05:01.965Z,30.52
2023-01-23T11:07:53.593Z,29.48
2023-01-23T11:10:23.288Z,30.42
2023-01-23T11:12:55.096Z,33.70
2023-01-23T11:15:23.712Z,35.95
2023-01-23T11:17:55.127Z,33.60
2023-01-23T11:20:30.007Z,32.45
2023-01-23T11:23:10.693Z,31.45
2023-01-23T11:25:43.051Z,32.90
2023-01-23T11:28:23.589Z,32.95
2023-01-23T11:31:15.536Z,27.25
2023-01-23T11:33:52.543Z,31.65
2023-01-23T11:36:26.966Z,29.15
2023-01-23T11:39:09.187Z,31.83
2023-01-23T11:41:36.337Z,30.08
2023-01-23T11:44:10.012Z,31.85
2023-01-23T11:46:59.779Z,32.13
2023-01-23T11:49:51.453Z,32.95
2023-01-23T11:52:34.537Z,29.85
2023-01-23T11:55:13.466Z,31.38
2023-01-23T11:57:49.249Z,31.25
2023-01-23T12:00:57.853Z,31.63
2023-01-23T12:03:41.055Z,31.60
2023-01-23T12:06:44.952Z,29.67
2023-01-23T12:09:16.550Z,32.08
2023-01-23T12:12:00.886Z,28.58
2023-01-23T12:14:36.163Z,28.90
2023-01-23T12:17:18.246Z,28.63
2023-01-23T12:20:01.787Z,27.70
2023-01-23T12:22:51.529Z,28.10
2023-01-23T12:25:39.510Z,26.98
2023-01-23T12:28:17.309Z,27.38
2023-01-23T12:31:06.344Z,26.90
2023-01-23T12:33:45.556Z,28.58
2023-01-23T12:36:30.826Z,27.60
2023-01-23T12:39:17.225Z,31.15
2023-01-23T12:42:03.511Z,28.98
2023-01-23T12:44:50.478Z,30.08
2023-01-23T12:47:23.311Z,28.25
2023-01-23T12:49:58.479Z,23.58
2023-01-23T12:52:43.333Z,31.02
2023-01-23T12:55:22.200Z,27.70
2023-01-23T12:58:00.030Z,25.70
2023-01-23T13:00:48.897Z,24.88
2023-01-23T13:03:22.793Z,22.52
2023-01-23T13:05:58.834Z,27.60
2023-01-23T13:08:56.326Z,25.20
2023-01-23T13:11:47.786Z,24.30
2023-01-23T13:14:36.876Z,22.55
2023-01-23T13:17:43.450Z,22.38
2023-01-23T13:20:42.473Z,26.33
2023-01-23T13:23:45.331Z,23.02
2023-01-23T13:26:23.120Z,21.60
2023-01-23T13:28:57.728Z,23.13
2023-01-23T13:31:35.060Z,22.88
2023-01-23T13:34:22.984Z,22.52
2023-01-23T13:36:54.317Z,21.05
2023-01-23T13:39:30.282Z,20.10
2023-01-23T13:42:15.096Z,23.70
2023-01-23T13:45:15.965Z,22.83
2023-01-23T14:22:15.047Z,21.17
2023-01-23T14:24:54.921Z,20.25
2023-01-23T14:27:31.649Z,19.60
2023-01-23T14:30:19.894Z,18.83
2023-01-23T14:32:46.896Z,20.55
2023-01-23T14:35:27.432Z,19.42
2023-01-23T14:37:59.773Z,18.08
2023-01-23T14:40:33.225Z,20.67
2023-01-23T14:43:07.889Z,19.33
2023-01-23T14:45:37.151Z,20.75
2023-01-23T14:48:07.717Z,19.98
2023-01-23T14:50:35.298Z,19.63
2023-01-23T14:53:07.645Z,18.08
2023-01-23T14:55:41.064Z,18.92
2023-01-23T14:58:18.581Z,18.05
2023-01-23T15:00:46.345Z,19.05
2023-01-23T15:03:33.001Z,17.55
2023-01-23T15:06:00.102Z,16.83
2023-01-23T15:08:32.219Z,16.40
2023-01-23T15:11:01.688Z,20.50
2023-01-23T15:13:51.236Z,19.58
2023-01-23T15:16:29.045Z,19.42
2023-01-23T15:19:02.897Z,23.08
2023-01-23T15:21:39.587Z,23.80
2023-01-23T15:24:09.056Z,22.85
2023-01-23T15:26:37.986Z,62.60
2023-01-23T15:29:26.756Z,141.90
2023-01-23T15:31:57.847Z,105.57
2023-01-23T15:34:30.738Z,42.22
2023-01-23T15:37:22.654Z,36.65
2023-01-23T15:39:50.799Z,22.80
2023-01-23T15:42:17.509Z,20.98
2023-01-23T15:44:44.872Z,20.48
2023-01-23T15:47:11.637Z,23.30
2023-01-23T15:49:40.422Z,18.27
2023-01-23T15:52:44.283Z,17.63
2023-01-23T15:55:11.427Z,16.65
2023-01-23T15:57:38.105Z,16.58
2023-01-23T16:00:20.518Z,17.05
2023-01-23T16:02:56.229Z,19.42
2023-01-23T16:05:26.532Z,17.40
2023-01-23T16:07:54.632Z,23.38
2023-01-23T16:10:30.389Z,20.48
2023-01-23T16:12:58.364Z,20.27
2023-01-23T16:15:30.794Z,17.25
2023-01-23T16:17:57.574Z,20.95
2023-01-23T16:20:34.674Z,25.27
2023-01-23T16:23:14.166Z,23.30
2023-01-23T16:25:46.196Z,19.30
2023-01-23T16:28:14.992Z,20.77
2023-01-23T16:30:41.744Z,21.15
2023-01-23T16:33:08.856Z,20.65
2023-01-23T16:35:35.922Z,23.42
2023-01-23T16:38:02.693Z,18.67
2023-01-23T16:40:33.771Z,19.88
2023-01-23T16:43:02.795Z,20.88
2023-01-23T16:45:32.004Z,20.30
2023-01-23T16:47:59.149Z,19.23
2023-01-23T16:50:36.593Z,20.35
2023-01-23T16:53:05.614Z,21.00
2023-01-23T16:55:39.758Z,20.90
2023-01-23T17:00:35.617Z,23.77
2023-01-23T17:03:07.457Z,22.88
2023-01-23T17:05:34.107Z,24.50
2023-01-23T17:08:00.860Z,21.00
2023-01-23T17:10:41.151Z,23.05
2023-01-23T17:15:40.171Z,24.80
2023-01-23T17:18:06.868Z,21.98
2023-01-23T17:20:33.556Z,24.65
2023-01-23T17:23:00.252Z,23.33
2023-01-23T17:25:27.397Z,21.60
2023-01-23T17:28:11.543Z,22.90
2023-01-23T17:30:40.248Z,20.38
2023-01-23T17:33:18.484Z,20.67
2023-01-23T17:35:45.864Z,21.90
2023-01-23T17:38:24.817Z,24.48
2023-01-23T17:40:52.469Z,25.55
2023-01-23T17:43:20.701Z,20.75
2023-01-23T17:45:50.109Z,28.02
2023-01-23T17:48:22.735Z,24.35
2023-01-23T17:50:49.402Z,23.20
2023-01-23T17:53:17.822Z,27.83
2023-01-23T17:55:48.563Z,22.63
2023-01-23T17:58:15.667Z,23.05
2023-01-23T18:00:44.166Z,24.02
2023-01-23T18:03:14.875Z,22.40
2023-01-23T18:05:41.520Z,30.30
2023-01-23T18:08:13.739Z,26.63
2023-01-23T18:10:41.107Z,26.50
2023-01-23T18:13:29.493Z,31.67
2023-01-23T18:16:15.588Z,29.25
2023-01-23T18:18:43.065Z,39.25
2023-01-23T18:21:15.050Z,25.13
2023-01-23T18:23:42.183Z,44.28
2023-01-23T18:26:33.695Z,28.33
2023-01-23T18:29:00.458Z,20.73
2023-01-23T18:32:09.555Z,22.02
2023-01-23T18:34:42.239Z,26.60
2023-01-23T18:37:33.069Z,23.92
2023-01-23T18:40:40.304Z,22.85
2023-01-23T18:43:21.818Z,27.63
2023-01-23T18:45:48.862Z,26.27
2023-01-23T18:48:25.036Z,21.48
2023-01-23T18:51:08.505Z,20.20
2023-01-23T18:53:43.151Z,25.33
2023-01-23T18:56:29.512Z,23.63
2023-01-23T18:59:10.973Z,26.73
2023-01-23T19:01:53.115Z,24.05
2023-01-23T19:04:30.435Z,27.90
2023-01-23T19:06:58.254Z,29.45
2023-01-23T19:09:26.860Z,28.40
2023-01-23T19:12:25.030Z,27.38
2023-01-23T19:15:22.010Z,23.75
2023-01-23T19:17:55.889Z,24.95
2023-01-23T19:20:42.198Z,28.98
2023-01-23T19:23:30.330Z,28.77
2023-01-23T19:25:57.515Z,25.48
2023-01-23T19:28:24.413Z,26.42
2023-01-23T19:30:51.376Z,23.95
2023-01-23T19:33:19.547Z,25.23
2023-01-23T19:35:47.719Z,22.23
2023-01-23T19:38:17.916Z,21.67
2023-01-23T19:40:45.830Z,22.00
2023-01-23T19:43:16.872Z,24.42
2023-01-23T19:45:44.782Z,24.42
2023-01-23T19:48:12.160Z,24.08
2023-01-23T19:50:39.486Z,24.73
2023-01-23T19:53:06.541Z,24.48
2023-01-23T19:55:36.188Z,28.13
2023-01-23T19:58:03.010Z,22.30
2023-01-23T20:00:33.075Z,25.92
2023-01-23T20:02:59.798Z,27.52
2023-01-23T20:05:27.085Z,28.27
2023-01-23T20:07:54.129Z,23.85
2023-01-23T20:10:21.623Z,23.98
2023-01-23T20:12:55.290Z,25.65
2023-01-23T20:15:23.958Z,23.45
2023-01-23T20:17:52.444Z,22.50
2023-01-23T20:20:19.880Z,27.33
2023-01-23T20:22:46.938Z,25.67
2023-01-23T20:25:15.944Z,24.10
2023-01-23T20:27:43.344Z,21.85
2023-01-23T20:30:17.623Z,24.27
2023-01-23T20:35:11.373Z,23.33
2023-01-23T20:37:38.099Z,23.35
2023-01-23T20:40:05.370Z,25.88
2023-01-23T20:42:33.400Z,26.35
2023-01-23T20:45:00.170Z,23.63
2023-01-23T20:47:26.950Z,27.52
2023-01-23T20:49:53.600Z,22.38
2023-01-23T20:52:38.746Z,25.95
2023-01-23T20:55:05.787Z,23.98
2023-01-23T20:57:51.106Z,22.23
2023-01-23T21:00:18.338Z,23.02
2023-01-23T21:02:45.047Z,24.10
2023-01-23T21:05:11.770Z,24.00
2023-01-23T21:07:38.544Z,25.83
2023-01-23T21:10:05.676Z,24.02
2023-01-23T21:12:32.458Z,25.27
2023-01-23T21:15:00.372Z,24.77
2023-01-23T21:17:27.747Z,25.45
2023-01-23T21:19:54.451Z,24.77
2023-01-23T21:22:21.193Z,23.67
2023-01-23T21:24:47.958Z,25.17
2023-01-23T21:27:14.750Z,26.13
2023-01-23T21:29:41.462Z,27.35
2023-01-23T21:32:08.378Z,24.02
2023-01-23T21:34:35.170Z,24.83
2023-01-23T21:37:03.333Z,26.30
2023-01-23T21:39:30.044Z,25.02
2023-01-23T21:41:56.785Z,23.60
2023-01-23T21:44:23.563Z,26.58
2023-01-23T21:46:50.321Z,24.00
2023-01-23T21:49:17.106Z,43.30
2023-01-23T21:51:44.840Z,70.22
2023-01-23T21:54:11.605Z,85.32
2023-01-23T21:56:38.476Z,64.00
2023-01-23T21:59:05.338Z,32.50
2023-01-23T22:01:32.493Z,23.98
2023-01-23T22:04:05.459Z,25.73
2023-01-23T22:06:33.656Z,23.98
2023-01-23T22:09:00.549Z,21.88
2023-01-23T22:11:27.780Z,23.67
2023-01-23T22:13:54.766Z,23.95
2023-01-23T22:16:31.882Z,25.27
2023-01-23T22:19:07.307Z,23.73
2023-01-23T22:21:34.233Z,25.30
2023-01-23T22:24:01.397Z,25.98
2023-01-23T22:26:28.310Z,27.00
2023-01-23T22:28:55.115Z,26.95
2023-01-23T22:31:22.008Z,25.92
2023-01-23T22:33:49.218Z,27.25
2023-01-23T22:36:19.367Z,26.48
2023-01-23T22:38:53.655Z,32.28
2023-01-23T22:41:20.910Z,23.98
2023-01-23T22:43:55.628Z,33.65
2023-01-23T22:46:23.442Z,25.67
2023-01-23T22:48:50.623Z,28.83
2023-01-23T22:51:25.472Z,27.15
2023-01-23T22:53:53.858Z,27.83
2023-01-23T22:56:21.340Z,24.50
2023-01-23T22:58:49.328Z,26.50
2023-01-23T23:01:16.578Z,23.38
2023-01-23T23:03:43.676Z,24.83
2023-01-23T23:06:14.494Z,26.75
2023-01-23T23:08:41.750Z,29.20
2023-01-23T23:11:14.071Z,26.08
2023-01-23T23:13:41.171Z,29.52
2023-01-23T23:16:14.540Z,27.00
2023-01-23T23:18:41.634Z,28.23
2023-01-23T23:21:11.350Z,28.80
2023-01-23T23:23:38.980Z,34.88
2023-01-23T23:26:09.702Z,33.88
2023-01-23T23:28:37.722Z,28.50
2023-01-23T23:31:05.668Z,31.80
2023-01-23T23:33:32.429Z,34.05
2023-01-23T23:35:59.325Z,32.72
2023-01-23T23:38:25.986Z,30.42
2023-01-23T23:41:01.314Z,42.03
2023-01-23T23:43:28.896Z,34.13
2023-01-23T23:46:01.166Z,34.45
2023-01-23T23:48:29.241Z,29.95
2023-01-23T23:50:56.232Z,34.25
2023-01-23T23:53:23.271Z,36.78
2023-01-23T23:55:50.075Z,37.53
2023-01-23T23:58:17.071Z,37.72
